createdAt,value
2018-07-13T00:01:43.036Z,51.10
2018-07-13T00:04:11.565Z,50.60
2018-07-13T00:06:40.128Z,50.60
2018-07-13T00:09:10.425Z,50.30
2018-07-13T00:11:39.349Z,50.60
2018-07-13T00:14:13.452Z,50.90
2018-07-13T00:16:42.700Z,51.00
2018-07-13T00:19:11.392Z,51.00
2018-07-13T00:21:39.934Z,51.00
2018-07-13T00:24:08.687Z,50.80
2018-07-13T00:26:37.857Z,50.40
2018-07-13T00:29:06.878Z,50.50
2018-07-13T00:31:36.253Z,50.50
2018-07-13T00:34:05.043Z,50.70
2018-07-13T00:36:33.605Z,50.90
2018-07-13T00:39:14.645Z,51.10
2018-07-13T00:41:43.173Z,51.60
2018-07-13T00:44:11.719Z,51.30
2018-07-13T00:46:40.329Z,51.50
2018-07-13T00:49:08.865Z,51.40
2018-07-13T00:51:37.379Z,51.30
2018-07-13T00:54:06.100Z,51.50
2018-07-13T00:56:34.637Z,52.00
2018-07-13T00:59:03.185Z,52.10
2018-07-13T01:01:31.735Z,52.50
2018-07-13T01:04:00.335Z,52.50
2018-07-13T01:06:28.851Z,52.40
2018-07-13T01:08:57.403Z,53.10
2018-07-13T01:11:26.004Z,53.00
2018-07-13T01:13:54.595Z,53.10
2018-07-13T01:16:23.208Z,53.20
2018-07-13T01:18:51.763Z,53.40
2018-07-13T01:21:20.339Z,53.80
2018-07-13T01:23:48.923Z,53.70
2018-07-13T01:26:17.579Z,53.60
2018-07-13T01:28:46.137Z,53.40
2018-07-13T01:31:14.664Z,53.50
2018-07-13T01:33:43.389Z,53.00
2018-07-13T01:36:11.982Z,53.10
2018-07-13T01:38:40.535Z,53.20
2018-07-13T01:41:09.107Z,53.40
2018-07-13T01:43:37.630Z,53.20
2018-07-13T01:46:06.203Z,53.20
2018-07-13T01:48:34.776Z,53.50
2018-07-13T01:51:03.321Z,53.70
2018-07-13T01:53:31.854Z,54.40
2018-07-13T01:56:00.374Z,54.00
2018-07-13T01:58:28.999Z,54.30
2018-07-13T02:00:57.544Z,54.60
2018-07-13T02:03:26.083Z,54.80
2018-07-13T02:05:54.615Z,54.80
2018-07-13T02:08:23.193Z,55.20
2018-07-13T02:10:51.785Z,55.20
2018-07-13T02:13:20.303Z,55.00
2018-07-13T02:15:48.877Z,55.00
2018-07-13T02:18:17.411Z,55.20
2018-07-13T02:20:45.919Z,55.30
2018-07-13T02:23:14.472Z,55.40
2018-07-13T02:25:42.977Z,55.60
2018-07-13T02:28:11.554Z,55.90
2018-07-13T02:30:40.090Z,56.00
2018-07-13T02:33:08.703Z,56.10
2018-07-13T02:35:37.221Z,56.70
2018-07-13T02:38:05.882Z,56.30
2018-07-13T02:40:34.411Z,56.20
2018-07-13T02:43:02.960Z,56.40
2018-07-13T02:45:31.485Z,56.90
2018-07-13T02:48:00.014Z,57.40
2018-07-13T02:50:28.588Z,57.80
2018-07-13T02:52:57.193Z,57.80
2018-07-13T02:55:25.729Z,58.40
2018-07-13T02:57:54.279Z,58.40
2018-07-13T03:00:22.804Z,58.70
2018-07-13T03:02:51.349Z,58.80
2018-07-13T03:05:19.888Z,58.80
2018-07-13T03:07:48.436Z,58.60
2018-07-13T03:10:16.939Z,58.60
2018-07-13T03:12:45.462Z,58.60
2018-07-13T03:15:14.005Z,58.80
2018-07-13T03:17:42.553Z,58.70
2018-07-13T03:20:11.086Z,59.30
2018-07-13T03:22:39.613Z,59.10
2018-07-13T03:25:08.149Z,58.80
2018-07-13T03:27:36.711Z,58.80
2018-07-13T03:30:05.344Z,58.80
2018-07-13T03:32:33.881Z,58.60
2018-07-13T03:35:02.495Z,58.80
2018-07-13T03:37:31.374Z,59.20
2018-07-13T03:39:59.889Z,59.00
2018-07-13T03:42:28.472Z,58.60
2018-07-13T03:44:57.049Z,59.00
2018-07-13T03:47:25.675Z,58.90
2018-07-13T03:49:54.225Z,59.20
2018-07-13T03:52:22.775Z,59.80
2018-07-13T03:54:51.291Z,59.60
2018-07-13T03:57:19.845Z,59.70
2018-07-13T03:59:48.433Z,59.70
2018-07-13T04:02:17.011Z,59.60
2018-07-13T04:04:45.561Z,59.60
2018-07-13T04:07:14.137Z,59.70
2018-07-13T04:09:42.674Z,60.10
2018-07-13T04:12:11.250Z,60.10
2018-07-13T04:14:39.915Z,60.20
2018-07-13T04:17:08.426Z,59.80
2018-07-13T04:19:37.045Z,59.20
2018-07-13T04:22:05.829Z,59.50
2018-07-13T04:24:34.415Z,59.60
2018-07-13T04:27:03.093Z,59.70
2018-07-13T04:29:31.723Z,58.30
2018-07-13T04:32:00.253Z,58.00
2018-07-13T04:34:28.836Z,57.60
2018-07-13T04:36:57.346Z,57.90
2018-07-13T04:39:25.931Z,57.60
2018-07-13T04:41:54.721Z,57.50
2018-07-13T04:44:27.243Z,56.80
2018-07-13T04:46:57.063Z,56.20
2018-07-13T04:49:25.691Z,55.50
2018-07-13T04:51:54.311Z,55.50
2018-07-13T04:54:22.927Z,55.40
2018-07-13T04:56:51.553Z,55.40
2018-07-13T04:59:20.287Z,57.20
2018-07-13T05:01:49.047Z,56.60
2018-07-13T05:04:17.694Z,55.90
2018-07-13T05:06:46.307Z,55.10
2018-07-13T05:09:15.087Z,55.00
2018-07-13T05:11:43.703Z,55.20
2018-07-13T05:14:12.274Z,55.50
2018-07-13T05:16:40.823Z,55.70
2018-07-13T05:19:09.374Z,54.70
2018-07-13T05:21:37.986Z,52.60
2018-07-13T05:24:06.671Z,50.60
2018-07-13T05:26:58.835Z,47.30
2018-07-13T05:29:27.535Z,46.00
2018-07-13T05:31:56.217Z,43.30
2018-07-13T05:34:24.863Z,41.80
2018-07-13T05:36:53.469Z,41.30
2018-07-13T05:39:22.211Z,40.30
2018-07-13T05:41:51.038Z,41.10
2018-07-13T05:44:19.696Z,40.50
2018-07-13T05:46:48.340Z,39.10
2018-07-13T05:49:16.935Z,39.40
2018-07-13T05:51:45.573Z,37.50
2018-07-13T05:54:14.625Z,36.40
2018-07-13T05:56:43.347Z,37.00
2018-07-13T05:59:12.080Z,37.20
2018-07-13T06:01:40.745Z,37.30
2018-07-13T06:04:09.637Z,37.80
2018-07-13T06:06:38.295Z,38.10
2018-07-13T06:09:08.765Z,37.90
2018-07-13T06:11:37.418Z,37.80
2018-07-13T06:14:06.436Z,37.00
2018-07-13T06:16:35.326Z,36.40
2018-07-13T06:19:05.068Z,36.00
2018-07-13T06:21:38.007Z,35.10
2018-07-13T06:24:07.295Z,34.40
2018-07-13T06:26:36.089Z,33.70
2018-07-13T06:29:04.794Z,33.70
2018-07-13T06:31:33.439Z,33.80
2018-07-13T06:34:02.123Z,33.40
2018-07-13T06:36:30.799Z,33.40
2018-07-13T06:38:59.456Z,31.80
2018-07-13T06:41:28.012Z,31.40
2018-07-13T06:43:56.723Z,31.20
2018-07-13T06:46:25.343Z,31.20
2018-07-13T06:48:53.971Z,31.20
2018-07-13T06:51:22.616Z,31.40
2018-07-13T06:53:51.284Z,29.80
2018-07-13T06:56:19.974Z,29.30
2018-07-13T06:58:59.703Z,28.90
2018-07-13T07:01:30.907Z,29.00
2018-07-13T07:04:36.279Z,28.70
2018-07-13T07:07:12.428Z,29.00
2018-07-13T07:09:47.212Z,28.80
2018-07-13T07:13:24.741Z,29.70
2018-07-13T07:15:53.565Z,29.90
2018-07-13T07:18:22.219Z,29.40
2018-07-13T07:20:50.868Z,29.00
2018-07-13T07:23:19.528Z,29.50
2018-07-13T07:25:48.219Z,28.70
2018-07-13T07:28:16.809Z,28.50
2018-07-13T07:30:45.538Z,27.60
2018-07-13T07:33:14.222Z,27.00
2018-07-13T07:35:42.806Z,26.70
2018-07-13T07:38:11.364Z,26.60
2018-07-13T07:40:40.063Z,27.30
2018-07-13T07:43:08.715Z,26.80
2018-07-13T07:45:37.471Z,26.40
2018-07-13T07:48:06.415Z,26.20
2018-07-13T07:50:35.277Z,26.10
2018-07-13T07:53:03.942Z,26.80
2018-07-13T07:55:32.512Z,27.00
2018-07-13T07:58:01.223Z,25.90
2018-07-13T08:00:29.813Z,25.80
2018-07-13T08:02:58.426Z,25.70
2018-07-13T08:05:27.062Z,24.30
2018-07-13T08:07:55.680Z,23.70
2018-07-13T08:10:24.263Z,24.30
2018-07-13T08:12:52.808Z,24.80
2018-07-13T08:15:21.402Z,24.70
2018-07-13T08:17:49.975Z,25.20
2018-07-13T08:20:20.388Z,25.20
2018-07-13T08:22:57.378Z,25.40
2018-07-13T08:25:27.055Z,25.00
2018-07-13T08:27:57.570Z,23.80
2018-07-13T08:30:59.953Z,23.50
2018-07-13T08:33:28.555Z,22.40
2018-07-13T08:35:57.241Z,22.20
2018-07-13T08:38:25.901Z,22.20
2018-07-13T08:40:54.577Z,22.30
2018-07-13T08:43:23.309Z,21.90
2018-07-13T08:45:52.175Z,22.00
2018-07-13T08:48:20.801Z,22.50
2018-07-13T08:50:49.644Z,22.40
2018-07-13T08:53:18.323Z,22.10
2018-07-13T08:55:46.975Z,23.30
2018-07-13T08:58:15.746Z,22.40
2018-07-13T09:00:44.347Z,21.80
2018-07-13T09:03:13.028Z,21.70
2018-07-13T09:05:41.693Z,21.90
2018-07-13T09:08:10.309Z,20.60
2018-07-13T09:10:38.989Z,20.70
2018-07-13T09:13:07.624Z,20.10
2018-07-13T09:15:36.264Z,19.90
2018-07-13T09:18:04.917Z,20.90
2018-07-13T09:20:33.664Z,21.20
2018-07-13T09:23:02.419Z,20.90
2018-07-13T09:25:31.071Z,21.00
2018-07-13T09:27:59.698Z,20.20
2018-07-13T09:30:28.370Z,20.00
2018-07-13T09:32:57.090Z,19.10
2018-07-13T09:35:25.712Z,19.00
2018-07-13T09:37:54.429Z,20.10
2018-07-13T09:40:23.091Z,19.70
2018-07-13T09:42:51.684Z,19.80
2018-07-13T09:45:20.405Z,19.20
2018-07-13T09:47:49.080Z,18.10
2018-07-13T09:50:17.748Z,17.90
2018-07-13T09:52:46.380Z,18.60
2018-07-13T09:55:15.032Z,18.80
2018-07-13T09:57:43.620Z,18.20
2018-07-13T10:00:13.472Z,19.10
2018-07-13T10:02:42.186Z,17.10
2018-07-13T10:05:10.839Z,16.50
2018-07-13T10:07:39.538Z,16.30
2018-07-13T10:10:08.209Z,16.30
2018-07-13T10:12:36.877Z,16.40
2018-07-13T10:15:05.603Z,16.70
2018-07-13T10:17:34.358Z,16.80
2018-07-13T10:20:03.120Z,15.10
2018-07-13T10:22:31.900Z,15.40
2018-07-13T10:25:01.910Z,16.80
2018-07-13T10:27:33.414Z,16.70
2018-07-13T10:30:03.588Z,16.40
2018-07-13T10:32:32.419Z,15.30
2018-07-13T10:35:02.770Z,14.40
2018-07-13T10:37:31.587Z,14.30
2018-07-13T10:40:00.228Z,14.00
2018-07-13T10:42:28.946Z,15.10
2018-07-13T10:44:57.592Z,15.40
2018-07-13T10:47:26.179Z,15.40
2018-07-13T10:49:54.869Z,15.20
2018-07-13T10:52:23.467Z,15.40
2018-07-13T10:54:52.113Z,14.70
2018-07-13T10:57:20.717Z,14.30
2018-07-13T10:59:49.339Z,14.60
2018-07-13T11:02:17.993Z,13.90
2018-07-13T11:04:46.582Z,14.60
2018-07-13T11:07:15.171Z,14.50
2018-07-13T11:09:43.800Z,14.80
2018-07-13T11:12:12.425Z,14.10
2018-07-13T11:14:41.023Z,13.50
2018-07-13T11:17:09.626Z,12.50
2018-07-13T11:19:38.249Z,12.40
2018-07-13T11:22:06.883Z,11.90
2018-07-13T11:24:35.469Z,11.80
2018-07-13T11:27:04.174Z,12.20
2018-07-13T11:29:32.829Z,12.20
2018-07-13T11:32:01.417Z,12.10
2018-07-13T11:34:30.003Z,11.20
2018-07-13T11:36:58.697Z,12.30
2018-07-13T11:39:27.302Z,11.80
2018-07-13T11:41:55.874Z,12.10
2018-07-13T11:44:24.444Z,12.90
2018-07-13T11:46:53.001Z,12.40
2018-07-13T11:49:21.616Z,13.10
2018-07-13T11:51:50.262Z,12.80
2018-07-13T11:54:18.842Z,13.50
2018-07-13T11:56:47.461Z,12.90
2018-07-13T11:59:16.043Z,13.00
2018-07-13T12:01:44.645Z,13.20
2018-07-13T12:04:13.237Z,12.50
2018-07-13T12:06:41.865Z,12.70
2018-07-13T12:09:10.601Z,13.00
2018-07-13T12:11:39.213Z,12.70
2018-07-13T12:14:07.816Z,13.30
2018-07-13T12:16:36.511Z,13.20
2018-07-13T12:19:05.065Z,13.30
2018-07-13T12:21:33.715Z,13.30
2018-07-13T12:24:02.319Z,13.50
2018-07-13T12:26:30.923Z,13.70
2018-07-13T12:28:59.493Z,15.50
2018-07-13T12:31:28.166Z,15.10
2018-07-13T12:33:56.763Z,14.30
2018-07-13T12:36:25.349Z,13.90
2018-07-13T12:38:54.048Z,13.10
2018-07-13T12:41:22.864Z,13.70
2018-07-13T12:43:51.528Z,12.30
2018-07-13T12:46:20.163Z,12.80
2018-07-13T12:48:48.844Z,12.90
2018-07-13T12:51:17.445Z,12.80
2018-07-13T12:53:46.081Z,13.00
2018-07-13T12:56:14.886Z,13.70
2018-07-13T12:58:43.460Z,15.30
2018-07-13T13:01:12.146Z,16.30
2018-07-13T13:03:40.828Z,17.10
2018-07-13T13:06:09.434Z,17.70
2018-07-13T13:08:38.098Z,18.60
2018-07-13T13:11:06.749Z,19.30
2018-07-13T13:13:35.423Z,19.70
2018-07-13T13:16:04.091Z,20.40
2018-07-13T13:18:32.663Z,19.40
2018-07-13T13:21:01.269Z,19.60
2018-07-13T13:23:29.930Z,20.10
2018-07-13T13:25:58.513Z,20.40
2018-07-13T13:28:27.112Z,19.40
2018-07-13T13:30:55.796Z,19.90
2018-07-13T13:33:24.458Z,20.00
2018-07-13T13:35:53.080Z,19.90
2018-07-13T13:38:21.688Z,19.40
2018-07-13T13:40:50.327Z,19.60
2018-07-13T13:43:19.027Z,19.30
2018-07-13T13:45:47.578Z,19.70
2018-07-13T13:48:16.159Z,20.30
2018-07-13T13:50:44.755Z,21.20
2018-07-13T13:53:13.364Z,20.60
2018-07-13T13:55:41.987Z,20.90
2018-07-13T13:58:10.602Z,20.60
2018-07-13T14:00:39.214Z,21.00
2018-07-13T14:03:07.851Z,20.90
2018-07-13T14:05:36.468Z,21.40
2018-07-13T14:08:05.081Z,20.60
2018-07-13T14:10:33.701Z,20.70
2018-07-13T14:13:02.352Z,20.90
2018-07-13T14:15:30.967Z,21.50
2018-07-13T14:17:59.598Z,21.60
2018-07-13T14:20:28.213Z,21.20
2018-07-13T14:22:56.923Z,21.60
2018-07-13T14:25:25.649Z,21.60
2018-07-13T14:27:54.235Z,21.60
2018-07-13T14:30:22.830Z,21.50
2018-07-13T14:32:51.388Z,21.50
2018-07-13T14:35:19.966Z,21.60
2018-07-13T14:37:48.893Z,21.70
2018-07-13T14:40:17.820Z,21.50
2018-07-13T14:42:46.414Z,21.90
2018-07-13T14:45:15.009Z,21.10
2018-07-13T14:47:43.661Z,21.40
2018-07-13T14:50:12.343Z,21.70
2018-07-13T14:52:41.026Z,21.70
2018-07-13T14:55:09.689Z,21.70
2018-07-13T14:57:38.289Z,21.80
2018-07-13T15:00:07.102Z,21.10
2018-07-13T15:02:35.694Z,21.90
2018-07-13T15:05:05.015Z,21.50
2018-07-13T15:07:33.552Z,21.40
2018-07-13T15:10:02.216Z,21.90
2018-07-13T15:12:30.782Z,21.80
2018-07-13T15:14:59.360Z,20.60
2018-07-13T15:17:27.990Z,20.70
2018-07-13T15:19:56.558Z,20.90
2018-07-13T15:22:25.238Z,20.40
2018-07-13T15:24:53.895Z,20.50
2018-07-13T15:27:22.601Z,21.40
2018-07-13T15:29:51.209Z,20.60
2018-07-13T15:32:19.908Z,20.90
2018-07-13T15:34:48.489Z,20.70
2018-07-13T15:37:17.186Z,20.90
2018-07-13T15:39:45.950Z,21.40
2018-07-13T15:42:14.577Z,22.00
2018-07-13T15:44:43.247Z,21.40
2018-07-13T15:47:11.869Z,21.50
2018-07-13T15:49:40.607Z,21.90
2018-07-13T15:52:09.335Z,22.40
2018-07-13T15:54:39.027Z,22.60
2018-07-13T15:57:07.662Z,22.40
2018-07-13T15:59:36.358Z,22.00
2018-07-13T16:02:05.164Z,21.90
2018-07-13T16:04:33.805Z,22.10
2018-07-13T16:07:02.660Z,21.80
2018-07-13T16:09:31.291Z,22.30
2018-07-13T16:11:59.937Z,22.60
2018-07-13T16:14:28.517Z,22.50
2018-07-13T16:16:57.192Z,22.70
2018-07-13T16:19:25.746Z,22.90
2018-07-13T16:21:54.563Z,23.20
2018-07-13T16:24:23.192Z,23.30
2018-07-13T16:26:51.968Z,23.40
2018-07-13T16:29:20.552Z,23.20
2018-07-13T16:31:49.124Z,23.20
2018-07-13T16:34:17.686Z,22.90
2018-07-13T16:36:46.261Z,23.10
2018-07-13T16:39:14.861Z,23.30
2018-07-13T16:41:43.457Z,23.50
2018-07-13T16:44:12.007Z,23.70
2018-07-13T16:46:40.562Z,23.30
2018-07-13T16:49:09.804Z,23.70
2018-07-13T16:51:38.512Z,23.20
2018-07-13T16:54:07.162Z,23.30
2018-07-13T16:56:35.886Z,23.20
2018-07-13T16:59:04.580Z,23.20
2018-07-13T17:01:33.215Z,22.80
2018-07-13T17:04:01.797Z,22.50
2018-07-13T17:06:30.474Z,22.50
2018-07-13T17:08:59.017Z,22.80
2018-07-13T17:11:27.575Z,23.00
2018-07-13T17:13:56.159Z,22.80
2018-07-13T17:16:24.780Z,22.70
2018-07-13T17:18:53.482Z,22.70
2018-07-13T17:21:22.097Z,22.90
2018-07-13T17:23:50.699Z,22.90
2018-07-13T17:26:19.458Z,23.00
2018-07-13T17:28:47.946Z,23.10
2018-07-13T17:31:16.522Z,22.70
2018-07-13T17:33:51.617Z,22.80
2018-07-13T17:36:20.287Z,22.80
2018-07-13T17:38:48.886Z,22.70
2018-07-13T17:41:17.459Z,23.10
2018-07-13T17:43:46.117Z,22.90
2018-07-13T17:46:14.695Z,23.50
2018-07-13T17:48:43.243Z,23.50
2018-07-13T17:51:11.859Z,23.90
2018-07-13T17:53:40.471Z,24.00
2018-07-13T17:56:09.126Z,24.30
2018-07-13T17:58:37.855Z,24.00
2018-07-13T18:01:06.552Z,24.30
2018-07-13T18:03:35.162Z,24.50
2018-07-13T18:06:03.860Z,24.60
2018-07-13T18:08:32.557Z,24.70
2018-07-13T18:11:01.161Z,25.00
2018-07-13T18:13:29.836Z,25.20
2018-07-13T18:15:58.498Z,25.40
2018-07-13T18:18:27.094Z,25.50
2018-07-13T18:20:55.807Z,25.70
2018-07-13T18:23:24.431Z,26.00
2018-07-13T18:25:53.116Z,26.10
2018-07-13T18:28:21.691Z,26.10
2018-07-13T18:30:50.282Z,26.30
2018-07-13T18:33:18.856Z,26.30
2018-07-13T18:35:47.387Z,26.50
2018-07-13T18:38:15.961Z,26.40
2018-07-13T18:40:44.619Z,26.50
2018-07-13T18:43:13.311Z,27.10
2018-07-13T18:45:41.942Z,26.50
2018-07-13T18:48:10.523Z,26.70
2018-07-13T18:50:39.139Z,26.80
2018-07-13T18:53:07.744Z,26.90
2018-07-13T18:55:36.555Z,27.20
2018-07-13T18:58:05.230Z,27.20
2018-07-13T19:00:33.853Z,27.70
2018-07-13T19:03:02.479Z,27.60
2018-07-13T19:05:31.111Z,27.80
2018-07-13T19:07:59.698Z,28.20
2018-07-13T19:10:28.344Z,28.80
2018-07-13T19:12:56.933Z,29.10
2018-07-13T19:15:25.506Z,29.60
2018-07-13T19:17:54.125Z,29.70
2018-07-13T19:20:22.750Z,29.90
2018-07-13T19:22:51.355Z,30.10
2018-07-13T19:25:19.987Z,30.80
2018-07-13T19:27:48.659Z,31.30
2018-07-13T19:30:17.352Z,31.30
2018-07-13T19:32:45.945Z,31.20
2018-07-13T19:35:14.536Z,31.70
2018-07-13T19:37:43.143Z,31.80
2018-07-13T19:40:11.771Z,32.10
2018-07-13T19:42:40.357Z,31.40
2018-07-13T19:45:08.913Z,31.60
2018-07-13T19:47:37.503Z,31.60
2018-07-13T19:50:06.326Z,31.80
2018-07-13T19:52:34.948Z,32.10
2018-07-13T19:55:03.591Z,32.50
2018-07-13T19:57:32.351Z,32.80
2018-07-13T20:00:00.911Z,33.90
2018-07-13T20:02:29.485Z,33.30
2018-07-13T20:04:58.059Z,34.00
2018-07-13T20:07:26.663Z,34.00
2018-07-13T20:09:55.386Z,34.10
2018-07-13T20:12:23.983Z,34.70
2018-07-13T20:14:52.556Z,34.50
2018-07-13T20:17:21.119Z,34.60
2018-07-13T20:19:49.940Z,35.10
2018-07-13T20:22:19.441Z,35.10
2018-07-13T20:24:48.445Z,36.00
2018-07-13T20:27:17.266Z,36.00
2018-07-13T20:29:46.326Z,36.20
2018-07-13T20:32:15.600Z,36.10
2018-07-13T20:34:45.222Z,35.90
2018-07-13T20:37:14.340Z,36.20
2018-07-13T20:39:44.126Z,35.90
2018-07-13T20:42:13.095Z,35.80
2018-07-13T20:44:42.181Z,36.10
2018-07-13T20:47:10.812Z,35.40
2018-07-13T20:49:39.338Z,35.40
2018-07-13T20:52:07.884Z,35.00
2018-07-13T20:54:36.468Z,35.30
2018-07-13T20:57:05.050Z,35.40
2018-07-13T20:59:33.614Z,35.40
2018-07-13T21:02:02.434Z,35.30
2018-07-13T21:04:33.633Z,35.40
2018-07-13T21:07:09.412Z,35.90
2018-07-13T21:09:43.894Z,36.00
2018-07-13T21:12:12.754Z,36.10
2018-07-13T21:14:41.314Z,36.40
2018-07-13T21:17:12.385Z,36.60
2018-07-13T21:19:42.679Z,36.90
2018-07-13T21:22:14.984Z,37.10
2018-07-13T21:24:48.363Z,37.60
2018-07-13T21:27:18.304Z,37.50
2018-07-13T21:29:52.438Z,37.70
2018-07-13T21:32:23.871Z,37.90
2018-07-13T21:34:53.908Z,38.20
2018-07-13T21:37:24.343Z,38.40
2018-07-13T21:39:55.549Z,38.60
2018-07-13T21:42:27.316Z,38.70
2018-07-13T21:44:56.057Z,38.60
2018-07-13T21:47:24.708Z,38.70
2018-07-13T21:49:53.337Z,38.40
2018-07-13T21:52:22.155Z,39.00
2018-07-13T21:54:50.864Z,38.90
2018-07-13T21:57:20.746Z,39.00
2018-07-13T21:59:51.484Z,39.20
2018-07-13T22:02:20.230Z,39.20
2018-07-13T22:04:48.998Z,39.90
2018-07-13T22:07:17.667Z,40.10
2018-07-13T22:09:46.216Z,40.70
2018-07-13T22:12:17.909Z,41.50
2018-07-13T22:14:50.433Z,42.30
2018-07-13T22:17:22.962Z,43.20
2018-07-13T22:19:51.601Z,43.00
2018-07-13T22:22:20.404Z,43.60
2018-07-13T22:24:48.981Z,44.00
2018-07-13T22:27:17.667Z,44.20
2018-07-13T22:29:46.257Z,43.90
2018-07-13T22:32:14.960Z,43.90
2018-07-13T22:34:43.610Z,44.30
2018-07-13T22:37:12.224Z,44.00
2018-07-13T22:39:40.786Z,44.00
2018-07-13T22:42:09.357Z,44.10
2018-07-13T22:44:37.997Z,44.70
2018-07-13T22:47:06.595Z,44.80
2018-07-13T22:49:35.198Z,44.70
2018-07-13T22:52:03.825Z,44.60
2018-07-13T22:54:32.394Z,44.70
2018-07-13T22:57:01.186Z,44.70
2018-07-13T22:59:29.733Z,45.10
2018-07-13T23:01:58.290Z,45.80
2018-07-13T23:04:26.851Z,45.50
2018-07-13T23:06:55.700Z,45.30
2018-07-13T23:09:24.295Z,45.70
2018-07-13T23:11:52.912Z,45.70
2018-07-13T23:14:21.540Z,45.60
2018-07-13T23:16:50.243Z,45.40
2018-07-13T23:19:18.894Z,45.80
2018-07-13T23:21:47.495Z,45.70
2018-07-13T23:24:16.312Z,45.40
2018-07-13T23:26:45.192Z,44.70
2018-07-13T23:29:13.967Z,44.90
2018-07-13T23:31:42.824Z,44.30
2018-07-13T23:34:11.385Z,44.00
2018-07-13T23:36:39.974Z,43.90
2018-07-13T23:39:08.707Z,43.50
2018-07-13T23:41:37.605Z,43.00
2018-07-13T23:44:06.199Z,43.30
2018-07-13T23:46:34.851Z,43.80
2018-07-13T23:49:04.321Z,43.40
2018-07-13T23:51:32.908Z,43.10
2018-07-13T23:54:01.564Z,42.40
2018-07-13T23:56:30.099Z,42.20
2018-07-13T23:58:58.724Z,41.90
